Terminal Aerodrome Forecast
Issued by NWS

Home | Current Version | Previous Version | Text Only | Print | Product List | Glossary On
Versions: 1 2 3 4 5 6 7 8 9 10 11 12 13 14 15 16 17 18 19 20
000
FTUS43 KTOP 251743
TAFMHK
TAF
KMHK 251743Z 2518/2618 04007KT P6SM BKN015 OVC025
     FM252100 04005KT P6SM VCTS SCT020 BKN040CB
     FM260100 06005KT P6SM SCT030 OVC040
     FM260900 08006KT P6SM VCTS BKN015 OVC025CB
     FM261500 10005KT P6SM OVC040=

USA.gov is the U.S. government's official web portal to all federal, state and local government web resources and services.